sensor_id;sensor_type;location;lat;lon;timestamp;temperature;humidity
20856;DHT22;63058;49.424;8.420;2023-04-01T00:00:18;13.40;99.90
20856;DHT22;63058;49.424;8.420;2023-04-01T00:02:44;13.40;99.90
20856;DHT22;63058;49.424;8.420;2023-04-01T00:05:11;13.40;99.90
20856;DHT22;63058;49.424;8.420;2023-04-01T00:07:38;13.40;99.90
20856;DHT22;63058;49.424;8.420;2023-04-01T00:10:05;13.40;99.90
20856;DHT22;63058;49.424;8.420;2023-04-01T00:12:32;13.40;99.90
20856;DHT22;63058;49.424;8.420;2023-04-01T00:14:58;13.30;99.90
20856;DHT22;63058;49.424;8.420;2023-04-01T00:17:23;13.30;99.90
20856;DHT22;63058;49.424;8.420;2023-04-01T00:19:49;13.30;99.90
20856;DHT22;63058;49.424;8.420;2023-04-01T00:22:15;13.30;99.90
20856;DHT22;63058;49.424;8.420;2023-04-01T00:24:40;13.30;99.90
20856;DHT22;63058;49.424;8.420;2023-04-01T00:27:06;13.30;99.90
20856;DHT22;63058;49.424;8.420;2023-04-01T00:29:33;13.30;99.90
20856;DHT22;63058;49.424;8.420;2023-04-01T00:31:59;13.30;99.90
20856;DHT22;63058;49.424;8.420;2023-04-01T00:34:25;13.30;99.90
20856;DHT22;63058;49.424;8.420;2023-04-01T00:36:51;13.30;99.90
20856;DHT22;63058;49.424;8.420;2023-04-01T00:39:18;13.30;99.90
20856;DHT22;63058;49.424;8.420;2023-04-01T00:41:43;13.30;99.90
20856;DHT22;63058;49.424;8.420;2023-04-01T00:44:23;13.30;99.90
20856;DHT22;63058;49.424;8.420;2023-04-01T00:46:49;13.30;99.90
20856;DHT22;63058;49.424;8.420;2023-04-01T00:49:16;13.30;99.90
20856;DHT22;63058;49.424;8.420;2023-04-01T00:51:45;13.40;99.90
20856;DHT22;63058;49.424;8.420;2023-04-01T00:54:12;13.40;99.90
20856;DHT22;63058;49.424;8.420;2023-04-01T00:56:59;13.40;99.90
20856;DHT22;63058;49.424;8.420;2023-04-01T00:59:31;13.40;99.90
20856;DHT22;63058;49.424;8.420;2023-04-01T01:01:58;13.40;99.90
20856;DHT22;63058;49.424;8.420;2023-04-01T01:04:29;13.40;99.90
20856;DHT22;63058;49.424;8.420;2023-04-01T01:10:17;13.40;99.90
20856;DHT22;63058;49.424;8.420;2023-04-01T01:18:17;13.30;99.90
20856;DHT22;63058;49.424;8.420;2023-04-01T01:37:00;13.30;99.90
20856;DHT22;63058;49.424;8.420;2023-04-01T01:39:30;13.30;99.90
20856;DHT22;63058;49.424;8.420;2023-04-01T01:42:00;13.30;99.90
20856;DHT22;63058;49.424;8.420;2023-04-01T01:44:28;13.30;99.60
20856;DHT22;63058;49.424;8.420;2023-04-01T01:46:56;13.40;99.70
20856;DHT22;63058;49.424;8.420;2023-04-01T01:49:22;13.40;99.80
20856;DHT22;63058;49.424;8.420;2023-04-01T01:51:49;13.40;99.70
20856;DHT22;63058;49.424;8.420;2023-04-01T01:54:16;13.40;99.70
20856;DHT22;63058;49.424;8.420;2023-04-01T01:56:46;13.40;99.40
20856;DHT22;63058;49.424;8.420;2023-04-01T01:59:15;13.50;99.40
20856;DHT22;63058;49.424;8.420;2023-04-01T02:01:48;13.50;99.80
20856;DHT22;63058;49.424;8.420;2023-04-01T02:04:15;13.50;99.00
20856;DHT22;63058;49.424;8.420;2023-04-01T02:06:50;13.50;99.70
20856;DHT22;63058;49.424;8.420;2023-04-01T02:09:19;13.50;99.50
20856;DHT22;63058;49.424;8.420;2023-04-01T02:14:28;13.50;98.80
20856;DHT22;63058;49.424;8.420;2023-04-01T02:17:07;13.50;98.10
20856;DHT22;63058;49.424;8.420;2023-04-01T02:19:40;13.60;98.90
20856;DHT22;63058;49.424;8.420;2023-04-01T02:22:11;13.60;98.80
20856;DHT22;63058;49.424;8.420;2023-04-01T02:24:40;13.60;98.70
20856;DHT22;63058;49.424;8.420;2023-04-01T02:27:06;13.50;98.90
20856;DHT22;63058;49.424;8.420;2023-04-01T02:29:32;13.60;98.90
20856;DHT22;63058;49.424;8.420;2023-04-01T02:31:58;13.60;98.80
20856;DHT22;63058;49.424;8.420;2023-04-01T02:34:26;13.50;98.70
20856;DHT22;63058;49.424;8.420;2023-04-01T02:36:51;13.50;98.90
20856;DHT22;63058;49.424;8.420;2023-04-01T02:39:18;13.50;98.70
20856;DHT22;63058;49.424;8.420;2023-04-01T02:41:45;13.50;98.50
20856;DHT22;63058;49.424;8.420;2023-04-01T02:44:13;13.50;98.70
20856;DHT22;63058;49.424;8.420;2023-04-01T02:46:39;13.50;98.50
20856;DHT22;63058;49.424;8.420;2023-04-01T02:49:05;13.40;98.70
20856;DHT22;63058;49.424;8.420;2023-04-01T02:51:32;13.40;98.60
20856;DHT22;63058;49.424;8.420;2023-04-01T02:53:58;13.40;98.20
20856;DHT22;63058;49.424;8.420;2023-04-01T02:56:24;13.30;98.40
20856;DHT22;63058;49.424;8.420;2023-04-01T02:58:49;13.30;98.60
20856;DHT22;63058;49.424;8.420;2023-04-01T03:01:16;13.30;98.60
20856;DHT22;63058;49.424;8.420;2023-04-01T03:03:41;13.30;98.70
20856;DHT22;63058;49.424;8.420;2023-04-01T03:06:12;13.20;98.60
20856;DHT22;63058;49.424;8.420;2023-04-01T03:08:38;13.20;98.70
20856;DHT22;63058;49.424;8.420;2023-04-01T03:11:04;13.20;98.90
20856;DHT22;63058;49.424;8.420;2023-04-01T03:13:30;13.20;98.90
20856;DHT22;63058;49.424;8.420;2023-04-01T03:15:56;13.20;99.10
20856;DHT22;63058;49.424;8.420;2023-04-01T03:18:22;13.20;99.00
20856;DHT22;63058;49.424;8.420;2023-04-01T03:20:47;13.20;99.10
20856;DHT22;63058;49.424;8.420;2023-04-01T03:23:13;13.20;98.90
20856;DHT22;63058;49.424;8.420;2023-04-01T03:25:39;13.20;98.80
20856;DHT22;63058;49.424;8.420;2023-04-01T03:28:05;13.20;98.90
20856;DHT22;63058;49.424;8.420;2023-04-01T03:30:30;13.20;98.90
20856;DHT22;63058;49.424;8.420;2023-04-01T03:32:57;13.10;98.90
20856;DHT22;63058;49.424;8.420;2023-04-01T03:35:24;13.20;99.00
20856;DHT22;63058;49.424;8.420;2023-04-01T03:37:51;13.10;99.10
20856;DHT22;63058;49.424;8.420;2023-04-01T03:40:17;13.10;99.10
20856;DHT22;63058;49.424;8.420;2023-04-01T03:42:43;13.10;98.90
20856;DHT22;63058;49.424;8.420;2023-04-01T03:45:09;13.10;98.60
20856;DHT22;63058;49.424;8.420;2023-04-01T03:47:35;13.10;98.90
20856;DHT22;63058;49.424;8.420;2023-04-01T03:50:01;13.10;98.90
20856;DHT22;63058;49.424;8.420;2023-04-01T03:52:27;13.20;98.50
20856;DHT22;63058;49.424;8.420;2023-04-01T03:54:52;13.20;98.80
20856;DHT22;63058;49.424;8.420;2023-04-01T03:57:18;13.20;98.70
20856;DHT22;63058;49.424;8.420;2023-04-01T03:59:44;13.20;98.80
20856;DHT22;63058;49.424;8.420;2023-04-01T04:02:09;13.20;98.90
20856;DHT22;63058;49.424;8.420;2023-04-01T04:04:35;13.30;98.90
20856;DHT22;63058;49.424;8.420;2023-04-01T04:07:01;13.30;98.60
20856;DHT22;63058;49.424;8.420;2023-04-01T04:09:26;13.30;98.20
20856;DHT22;63058;49.424;8.420;2023-04-01T04:11:52;13.20;98.40
20856;DHT22;63058;49.424;8.420;2023-04-01T04:14:18;13.30;98.40
20856;DHT22;63058;49.424;8.420;2023-04-01T04:16:43;13.30;98.30
20856;DHT22;63058;49.424;8.420;2023-04-01T04:19:09;13.30;98.50
20856;DHT22;63058;49.424;8.420;2023-04-01T04:21:35;13.30;98.30
20856;DHT22;63058;49.424;8.420;2023-04-01T04:24:01;13.30;98.10
20856;DHT22;63058;49.424;8.420;2023-04-01T04:26:27;13.30;98.10
20856;DHT22;63058;49.424;8.420;2023-04-01T04:28:54;13.30;98.20
20856;DHT22;63058;49.424;8.420;2023-04-01T04:31:21;13.30;98.20
20856;DHT22;63058;49.424;8.420;2023-04-01T04:33:47;13.30;97.60
20856;DHT22;63058;49.424;8.420;2023-04-01T04:36:13;13.30;98.10
20856;DHT22;63058;49.424;8.420;2023-04-01T04:38:39;13.40;98.20
20856;DHT22;63058;49.424;8.420;2023-04-01T04:41:11;13.40;98.30
20856;DHT22;63058;49.424;8.420;2023-04-01T04:43:38;13.40;98.20
20856;DHT22;63058;49.424;8.420;2023-04-01T04:46:09;13.40;98.10
20856;DHT22;63058;49.424;8.420;2023-04-01T04:48:35;13.40;97.90
20856;DHT22;63058;49.424;8.420;2023-04-01T04:51:01;13.30;98.10
20856;DHT22;63058;49.424;8.420;2023-04-01T04:53:27;13.30;98.20
20856;DHT22;63058;49.424;8.420;2023-04-01T04:55:53;13.30;98.10
20856;DHT22;63058;49.424;8.420;2023-04-01T04:58:19;13.30;98.20
20856;DHT22;63058;49.424;8.420;2023-04-01T05:00:45;13.20;98.30
20856;DHT22;63058;49.424;8.420;2023-04-01T05:03:11;13.20;98.40
20856;DHT22;63058;49.424;8.420;2023-04-01T05:05:38;13.20;98.40
20856;DHT22;63058;49.424;8.420;2023-04-01T05:08:04;13.10;98.50
20856;DHT22;63058;49.424;8.420;2023-04-01T05:10:30;13.10;98.60
20856;DHT22;63058;49.424;8.420;2023-04-01T05:12:57;13.10;98.60
20856;DHT22;63058;49.424;8.420;2023-04-01T05:15:23;13.10;98.60
20856;DHT22;63058;49.424;8.420;2023-04-01T05:17:49;13.10;98.60
20856;DHT22;63058;49.424;8.420;2023-04-01T05:20:15;13.00;98.70
20856;DHT22;63058;49.424;8.420;2023-04-01T05:22:41;13.00;98.70
20856;DHT22;63058;49.424;8.420;2023-04-01T05:25:07;13.00;98.80
20856;DHT22;63058;49.424;8.420;2023-04-01T05:27:32;13.00;98.90
20856;DHT22;63058;49.424;8.420;2023-04-01T05:29:58;13.00;99.00
20856;DHT22;63058;49.424;8.420;2023-04-01T05:32:24;13.00;99.10
20856;DHT22;63058;49.424;8.420;2023-04-01T05:34:53;13.00;99.10
20856;DHT22;63058;49.424;8.420;2023-04-01T05:37:20;13.00;99.10
20856;DHT22;63058;49.424;8.420;2023-04-01T05:39:46;13.00;99.20
20856;DHT22;63058;49.424;8.420;2023-04-01T05:42:11;13.00;99.20
20856;DHT22;63058;49.424;8.420;2023-04-01T05:44:37;13.00;99.10
20856;DHT22;63058;49.424;8.420;2023-04-01T05:47:03;13.10;99.20
20856;DHT22;63058;49.424;8.420;2023-04-01T05:49:29;13.10;99.10
20856;DHT22;63058;49.424;8.420;2023-04-01T05:51:55;13.10;99.00
20856;DHT22;63058;49.424;8.420;2023-04-01T05:54:21;13.10;99.20
20856;DHT22;63058;49.424;8.420;2023-04-01T05:56:47;13.10;99.10
20856;DHT22;63058;49.424;8.420;2023-04-01T05:59:13;13.10;99.30
20856;DHT22;63058;49.424;8.420;2023-04-01T06:01:39;13.10;99.30
20856;DHT22;63058;49.424;8.420;2023-04-01T06:04:04;13.10;99.30
20856;DHT22;63058;49.424;8.420;2023-04-01T06:06:31;13.10;99.20
20856;DHT22;63058;49.424;8.420;2023-04-01T06:09:01;13.10;99.20
20856;DHT22;63058;49.424;8.420;2023-04-01T06:17:21;13.10;99.10
20856;DHT22;63058;49.424;8.420;2023-04-01T06:19:57;13.10;98.90
20856;DHT22;63058;49.424;8.420;2023-04-01T06:33:55;13.00;98.70
20856;DHT22;63058;49.424;8.420;2023-04-01T06:39:36;13.00;98.80
20856;DHT22;63058;49.424;8.420;2023-04-01T06:52:26;13.10;99.10
20856;DHT22;63058;49.424;8.420;2023-04-01T06:55:12;13.10;98.90
20856;DHT22;63058;49.424;8.420;2023-04-01T06:57:48;13.10;98.80
20856;DHT22;63058;49.424;8.420;2023-04-01T07:00:35;13.20;98.60
20856;DHT22;63058;49.424;8.420;2023-04-01T07:03:15;13.20;98.60
20856;DHT22;63058;49.424;8.420;2023-04-01T07:05:42;13.20;98.80
20856;DHT22;63058;49.424;8.420;2023-04-01T07:08:13;13.20;99.00
20856;DHT22;63058;49.424;8.420;2023-04-01T07:13:32;13.30;98.60
20856;DHT22;63058;49.424;8.420;2023-04-01T07:16:11;13.30;98.50
20856;DHT22;63058;49.424;8.420;2023-04-01T07:19:00;13.30;98.60
20856;DHT22;63058;49.424;8.420;2023-04-01T07:21:40;13.30;98.70
20856;DHT22;63058;49.424;8.420;2023-04-01T07:24:13;13.30;98.60
20856;DHT22;63058;49.424;8.420;2023-04-01T07:26:41;13.30;98.40
20856;DHT22;63058;49.424;8.420;2023-04-01T07:29:12;13.30;98.70
20856;DHT22;63058;49.424;8.420;2023-04-01T07:34:23;13.30;99.10
20856;DHT22;63058;49.424;8.420;2023-04-01T07:37:00;13.30;99.00
20856;DHT22;63058;49.424;8.420;2023-04-01T07:39:45;13.40;99.40
20856;DHT22;63058;49.424;8.420;2023-04-01T07:48:29;13.50;98.90
20856;DHT22;63058;49.424;8.420;2023-04-01T07:53:36;13.70;99.40
20856;DHT22;63058;49.424;8.420;2023-04-01T07:56:14;13.70;99.30
20856;DHT22;63058;49.424;8.420;2023-04-01T07:58:59;13.80;99.30
20856;DHT22;63058;49.424;8.420;2023-04-01T08:01:29;13.90;99.50
20856;DHT22;63058;49.424;8.420;2023-04-01T08:07:23;14.00;99.70
20856;DHT22;63058;49.424;8.420;2023-04-01T08:10:03;14.10;99.10
20856;DHT22;63058;49.424;8.420;2023-04-01T08:15:35;14.20;99.10
20856;DHT22;63058;49.424;8.420;2023-04-01T08:18:27;14.20;99.30
20856;DHT22;63058;49.424;8.420;2023-04-01T08:21:03;14.20;99.40
20856;DHT22;63058;49.424;8.420;2023-04-01T08:23:38;14.20;99.10
20856;DHT22;63058;49.424;8.420;2023-04-01T08:31:43;14.30;99.00
20856;DHT22;63058;49.424;8.420;2023-04-01T08:34:16;14.20;99.00
20856;DHT22;63058;49.424;8.420;2023-04-01T08:36:48;14.20;99.10
20856;DHT22;63058;49.424;8.420;2023-04-01T08:40:08;14.20;99.10
20856;DHT22;63058;49.424;8.420;2023-04-01T08:42:31;14.20;99.00
20856;DHT22;63058;49.424;8.420;2023-04-01T08:57:25;13.90;99.00
20856;DHT22;63058;49.424;8.420;2023-04-01T09:00:32;13.80;99.30
20856;DHT22;63058;49.424;8.420;2023-04-01T09:03:19;13.80;99.00
20856;DHT22;63058;49.424;8.420;2023-04-01T09:06:24;13.80;99.50
20856;DHT22;63058;49.424;8.420;2023-04-01T09:22:47;13.70;99.90
20856;DHT22;63058;49.424;8.420;2023-04-01T09:25:44;13.70;99.90
20856;DHT22;63058;49.424;8.420;2023-04-01T09:28:30;13.80;99.90
20856;DHT22;63058;49.424;8.420;2023-04-01T09:37:08;13.80;99.90
20856;DHT22;63058;49.424;8.420;2023-04-01T09:39:57;13.90;99.90
20856;DHT22;63058;49.424;8.420;2023-04-01T09:59:37;14.30;99.90
20856;DHT22;63058;49.424;8.420;2023-04-01T10:22:11;14.70;99.90
20856;DHT22;63058;49.424;8.420;2023-04-01T10:38:28;14.90;99.40
20856;DHT22;63058;49.424;8.420;2023-04-01T10:49:35;14.90;99.70
20856;DHT22;63058;49.424;8.420;2023-04-01T10:58:20;14.90;99.40
20856;DHT22;63058;49.424;8.420;2023-04-01T11:03:43;14.80;99.30
20856;DHT22;63058;49.424;8.420;2023-04-01T11:06:35;14.80;98.10
20856;DHT22;63058;49.424;8.420;2023-04-01T11:28:43;15.00;98.20
20856;DHT22;63058;49.424;8.420;2023-04-01T11:34:50;14.90;98.00
20856;DHT22;63058;49.424;8.420;2023-04-01T11:37:32;14.90;97.40
20856;DHT22;63058;49.424;8.420;2023-04-01T11:40:20;15.00;98.40
20856;DHT22;63058;49.424;8.420;2023-04-01T11:42:58;15.00;98.30
20856;DHT22;63058;49.424;8.420;2023-04-01T11:45:41;15.00;98.60
20856;DHT22;63058;49.424;8.420;2023-04-01T12:10:59;15.20;98.90
20856;DHT22;63058;49.424;8.420;2023-04-01T12:17:00;15.30;97.30
20856;DHT22;63058;49.424;8.420;2023-04-01T12:19:30;15.30;98.20
20856;DHT22;63058;49.424;8.420;2023-04-01T12:22:12;15.30;98.40
20856;DHT22;63058;49.424;8.420;2023-04-01T12:24:49;15.30;98.20
20856;DHT22;63058;49.424;8.420;2023-04-01T12:30:14;15.30;97.80
20856;DHT22;63058;49.424;8.420;2023-04-01T12:32:51;15.30;97.10
20856;DHT22;63058;49.424;8.420;2023-04-01T12:52:12;15.40;97.20
20856;DHT22;63058;49.424;8.420;2023-04-01T13:06:19;15.40;97.10
20856;DHT22;63058;49.424;8.420;2023-04-01T13:09:27;15.40;96.60
20856;DHT22;63058;49.424;8.420;2023-04-01T13:20:24;15.40;97.20
20856;DHT22;63058;49.424;8.420;2023-04-01T13:26:04;15.30;96.90
20856;DHT22;63058;49.424;8.420;2023-04-01T13:28:40;15.30;96.50
20856;DHT22;63058;49.424;8.420;2023-04-01T13:34:24;15.30;96.00
20856;DHT22;63058;49.424;8.420;2023-04-01T13:44:54;15.40;96.90
20856;DHT22;63058;49.424;8.420;2023-04-01T13:47:38;15.50;97.30
20856;DHT22;63058;49.424;8.420;2023-04-01T13:53:21;15.50;97.40
20856;DHT22;63058;49.424;8.420;2023-04-01T14:07:22;15.50;94.70
20856;DHT22;63058;49.424;8.420;2023-04-01T14:10:17;15.50;96.20
20856;DHT22;63058;49.424;8.420;2023-04-01T14:38:26;15.30;96.10
20856;DHT22;63058;49.424;8.420;2023-04-01T14:40:26;15.30;95.50
20856;DHT22;63058;49.424;8.420;2023-04-01T14:51:17;15.30;95.00
20856;DHT22;63058;49.424;8.420;2023-04-01T15:02:31;15.20;94.70
20856;DHT22;63058;49.424;8.420;2023-04-01T15:05:16;15.30;93.30
20856;DHT22;63058;49.424;8.420;2023-04-01T15:10:49;15.20;94.20
20856;DHT22;63058;49.424;8.420;2023-04-01T15:16:20;15.20;94.20
20856;DHT22;63058;49.424;8.420;2023-04-01T15:21:38;15.20;94.30
20856;DHT22;63058;49.424;8.420;2023-04-01T15:29:32;15.20;93.90
20856;DHT22;63058;49.424;8.420;2023-04-01T15:48:44;15.20;94.00
20856;DHT22;63058;49.424;8.420;2023-04-01T16:04:34;15.30;95.20
20856;DHT22;63058;49.424;8.420;2023-04-01T16:09:53;15.30;94.90
20856;DHT22;63058;49.424;8.420;2023-04-01T16:15:13;15.30;95.00
20856;DHT22;63058;49.424;8.420;2023-04-01T16:20:54;15.30;95.10
20856;DHT22;63058;49.424;8.420;2023-04-01T16:23:46;15.20;94.40
20856;DHT22;63058;49.424;8.420;2023-04-01T16:26:34;15.30;94.60
20856;DHT22;63058;49.424;8.420;2023-04-01T16:34:49;15.10;93.50
20856;DHT22;63058;49.424;8.420;2023-04-01T16:37:28;15.20;93.70
20856;DHT22;63058;49.424;8.420;2023-04-01T16:40:12;15.10;93.30
20856;DHT22;63058;49.424;8.420;2023-04-01T16:42:51;15.10;93.60
20856;DHT22;63058;49.424;8.420;2023-04-01T16:45:36;15.10;93.20
20856;DHT22;63058;49.424;8.420;2023-04-01T16:48:13;15.00;93.40
20856;DHT22;63058;49.424;8.420;2023-04-01T16:51:04;15.00;93.40
20856;DHT22;63058;49.424;8.420;2023-04-01T16:53:43;15.00;93.30
20856;DHT22;63058;49.424;8.420;2023-04-01T16:56:16;14.90;92.70
20856;DHT22;63058;49.424;8.420;2023-04-01T17:01:24;15.00;93.20
20856;DHT22;63058;49.424;8.420;2023-04-01T17:03:58;15.00;93.50
20856;DHT22;63058;49.424;8.420;2023-04-01T17:06:34;15.00;93.40
20856;DHT22;63058;49.424;8.420;2023-04-01T17:17:31;15.10;93.10
20856;DHT22;63058;49.424;8.420;2023-04-01T17:23:20;15.20;92.70
20856;DHT22;63058;49.424;8.420;2023-04-01T17:41:49;15.00;93.20
20856;DHT22;63058;49.424;8.420;2023-04-01T17:47:12;15.00;92.70
20856;DHT22;63058;49.424;8.420;2023-04-01T17:50:13;14.80;93.20
20856;DHT22;63058;49.424;8.420;2023-04-01T18:01:02;14.70;93.40
20856;DHT22;63058;49.424;8.420;2023-04-01T18:08:59;14.50;93.60
20856;DHT22;63058;49.424;8.420;2023-04-01T18:17:18;14.40;93.70
20856;DHT22;63058;49.424;8.420;2023-04-01T18:25:37;14.30;94.70
20856;DHT22;63058;49.424;8.420;2023-04-01T18:28:20;14.30;94.20
20856;DHT22;63058;49.424;8.420;2023-04-01T18:36:24;14.10;94.30
20856;DHT22;63058;49.424;8.420;2023-04-01T18:38:56;14.00;94.50
20856;DHT22;63058;49.424;8.420;2023-04-01T18:41:49;13.90;94.60
20856;DHT22;63058;49.424;8.420;2023-04-01T18:44:31;13.80;94.60
20856;DHT22;63058;49.424;8.420;2023-04-01T18:50:00;13.60;94.70
20856;DHT22;63058;49.424;8.420;2023-04-01T18:52:45;13.50;95.30
20856;DHT22;63058;49.424;8.420;2023-04-01T18:57:52;13.40;95.70
20856;DHT22;63058;49.424;8.420;2023-04-01T19:00:27;13.40;95.70
20856;DHT22;63058;49.424;8.420;2023-04-01T19:03:20;13.40;96.20
20856;DHT22;63058;49.424;8.420;2023-04-01T19:05:49;13.30;96.00
20856;DHT22;63058;49.424;8.420;2023-04-01T19:08:32;13.40;96.40
20856;DHT22;63058;49.424;8.420;2023-04-01T19:11:04;13.40;96.10
20856;DHT22;63058;49.424;8.420;2023-04-01T19:13:50;13.40;96.70
20856;DHT22;63058;49.424;8.420;2023-04-01T19:16:23;13.50;96.20
20856;DHT22;63058;49.424;8.420;2023-04-01T19:32:54;13.50;96.80
20856;DHT22;63058;49.424;8.420;2023-04-01T19:35:42;13.60;96.60
20856;DHT22;63058;49.424;8.420;2023-04-01T19:47:24;13.50;96.80
20856;DHT22;63058;49.424;8.420;2023-04-01T19:52:16;13.60;97.30
20856;DHT22;63058;49.424;8.420;2023-04-01T20:00:46;13.50;96.60
20856;DHT22;63058;49.424;8.420;2023-04-01T20:03:51;13.50;96.90
20856;DHT22;63058;49.424;8.420;2023-04-01T20:06:31;13.50;96.70
20856;DHT22;63058;49.424;8.420;2023-04-01T20:09:28;13.50;97.10
20856;DHT22;63058;49.424;8.420;2023-04-01T20:17:52;13.50;97.10
20856;DHT22;63058;49.424;8.420;2023-04-01T20:22:47;13.50;97.40
20856;DHT22;63058;49.424;8.420;2023-04-01T20:25:21;13.50;97.50
20856;DHT22;63058;49.424;8.420;2023-04-01T20:31:35;13.40;97.10
20856;DHT22;63058;49.424;8.420;2023-04-01T20:34:32;13.40;97.00
20856;DHT22;63058;49.424;8.420;2023-04-01T20:45:37;13.40;97.90
20856;DHT22;63058;49.424;8.420;2023-04-01T20:50:56;13.30;98.40
20856;DHT22;63058;49.424;8.420;2023-04-01T21:02:04;13.30;98.20
20856;DHT22;63058;49.424;8.420;2023-04-01T21:07:36;13.20;98.30
20856;DHT22;63058;49.424;8.420;2023-04-01T21:25:02;13.10;98.30
20856;DHT22;63058;49.424;8.420;2023-04-01T21:31:10;13.10;98.10
20856;DHT22;63058;49.424;8.420;2023-04-01T21:33:33;13.10;98.70
20856;DHT22;63058;49.424;8.420;2023-04-01T21:39:40;13.10;98.60
20856;DHT22;63058;49.424;8.420;2023-04-01T21:56:47;13.10;98.40
20856;DHT22;63058;49.424;8.420;2023-04-01T22:07:29;13.00;98.50
20856;DHT22;63058;49.424;8.420;2023-04-01T22:12:35;13.10;98.70
20856;DHT22;63058;49.424;8.420;2023-04-01T22:18:32;13.10;98.20
20856;DHT22;63058;49.424;8.420;2023-04-01T22:21:26;13.10;98.60
20856;DHT22;63058;49.424;8.420;2023-04-01T22:24:05;13.10;97.80
20856;DHT22;63058;49.424;8.420;2023-04-01T22:26:50;13.10;98.20
20856;DHT22;63058;49.424;8.420;2023-04-01T22:32:05;13.10;98.10
20856;DHT22;63058;49.424;8.420;2023-04-01T22:34:52;13.10;98.50
20856;DHT22;63058;49.424;8.420;2023-04-01T22:37:40;13.00;98.50
20856;DHT22;63058;49.424;8.420;2023-04-01T22:40:14;13.00;98.40
20856;DHT22;63058;49.424;8.420;2023-04-01T22:48:08;13.10;98.70
20856;DHT22;63058;49.424;8.420;2023-04-01T22:51:01;13.10;98.60
20856;DHT22;63058;49.424;8.420;2023-04-01T22:53:48;13.10;98.70
20856;DHT22;63058;49.424;8.420;2023-04-01T22:56:51;13.00;98.60
20856;DHT22;63058;49.424;8.420;2023-04-01T22:59:26;13.10;98.70
20856;DHT22;63058;49.424;8.420;2023-04-01T23:01:59;13.10;99.00
20856;DHT22;63058;49.424;8.420;2023-04-01T23:04:31;13.10;98.70
20856;DHT22;63058;49.424;8.420;2023-04-01T23:07:03;13.10;98.40
20856;DHT22;63058;49.424;8.420;2023-04-01T23:09:34;13.10;98.80
20856;DHT22;63058;49.424;8.420;2023-04-01T23:12:09;13.10;98.70
20856;DHT22;63058;49.424;8.420;2023-04-01T23:14:49;13.10;98.80
20856;DHT22;63058;49.424;8.420;2023-04-01T23:17:37;13.10;98.70
20856;DHT22;63058;49.424;8.420;2023-04-01T23:26:00;13.10;98.70
20856;DHT22;63058;49.424;8.420;2023-04-01T23:36:42;13.00;98.70
20856;DHT22;63058;49.424;8.420;2023-04-01T23:41:47;13.00;98.80
20856;DHT22;63058;49.424;8.420;2023-04-01T23:44:13;13.00;99.10
20856;DHT22;63058;49.424;8.420;2023-04-01T23:46:40;13.00;99.00
20856;DHT22;63058;49.424;8.420;2023-04-01T23:49:13;12.90;99.10
20856;DHT22;63058;49.424;8.420;2023-04-01T23:51:53;12.90;98.90
20856;DHT22;63058;49.424;8.420;2023-04-01T23:56:55;12.90;99.10
20856;DHT22;63058;49.424;8.420;2023-04-01T23:59:33;12.90;99.10
